Thursday, January 18, 2018, 8:52 PM EST
Back to Local

KBHB, Bar Harbor, Hancock County-bar Harbor Airport

Location: Ellsworth, ME, United States Lat: 44.45
Local Time: 8:52 PM EST ( 1:52 GMT) Lon: -68.367
Time Zone: US/Eastern Elev: 82 ft

Show me the last for .
Show Decoded

2018-01-18 19:56 METAR KBHB 190056Z AUTO 29004KT 10SM CLR M06/M08 A2988 RMK AO2 SLP122 T10561083
                 FZRANO PNO $ =
2018-01-18 18:56 METAR KBHB 182356Z AUTO 00000KT 10SM CLR M07/M09 A2987 RMK AO2 SLP118 6////
                 T10721089 10011 21078 400111111 53015 FZRANO PNO $ =
2018-01-18 17:56 METAR KBHB 182256Z AUTO 28004KT 10SM CLR M06/M08 A2985 RMK AO2 SLP111 T10611078
                 FZRANO PNO $ =
2018-01-18 16:56 METAR KBHB 182156Z AUTO 00000KT 8SM CLR M06/M09 A2984 RMK AO2 SLP108 T10561094
                 FZRANO PNO $ =
2018-01-18 15:56 METAR KBHB 182056Z AUTO VRB04KT 10SM CLR M02/M07 A2982 RMK AO2 SLP103 6////
                 T10221072 56010 FZRANO PNO $ =
2018-01-18 14:56 METAR KBHB 181956Z AUTO 31005KT 10SM CLR M01/M07 A2983 RMK AO2 SLP104 T10061067
                 FZRANO PNO $ =
2018-01-18 13:56 METAR KBHB 181856Z AUTO 31007KT 10SM CLR 00/M07 A2984 RMK AO2 SLP110 T00001072
                 FZRANO PNO $ =
2018-01-18 12:56 METAR KBHB 181756Z AUTO VRB04KT 10SM CLR 01/M08 A2985 RMK AO2 SLP113 6////
                 T00061078 10006 21111 58020 FZRANO PNO $ =
2018-01-18 11:56 METAR KBHB 181656Z AUTO 34009G15KT 10SM CLR M02/M08 A2987 RMK AO2 SLP120
                 T10171078 FZRANO PNO $ =
2018-01-18 10:56 METAR KBHB 181556Z AUTO 32007KT 9SM SCT016 M02/M07 A2990 RMK AO2 SNB45E55 SLP130
                 T10221072 FZRANO PNO $ =
2018-01-18 10:46 METAR KBHB 181546Z AUTO 34006KT 8SM -SN BKN016 M03/M07 A2991 RMK AO2 SNB45
                 FZRANO PNO $ =
2018-01-18 09:56 METAR KBHB 181456Z AUTO 35006KT 10SM CLR M02/M06 A2994 RMK AO2 SLP141 6////
                 T10221056 51003 FZRANO PNO $ =
2018-01-18 08:56 METAR KBHB 181356Z AUTO 00000KT 5SM BR CLR M06/M07 A2994 RMK AO2 SLP141
                 T10561067 FZRANO PNO $ =
2018-01-18 08:15 METAR KBHB 181315Z AUTO 00000KT 9SM FEW003 M07/M08 A2993 RMK AO2 FZRANO PNO $ =
2018-01-18 07:56 METAR KBHB 181256Z AUTO 00000KT 10SM BKN003 M09/M10 A2993 RMK AO2 SLP140
                 T10891100 FZRANO PNO $ =
2018-01-18 06:56 METAR KBHB 181156Z AUTO 00000KT 9SM FEW002 M11/M12 A2993 RMK AO2 SNB39E51 SLP138
                 6//// 7//// T11061117 11033 21111 50001 FZRANO PNO $ =
2018-01-18 06:54 METAR KBHB 181154Z AUTO 22003KT 9SM FEW002 M11/M12 A2993 RMK AO2 SNB39E51 FZRANO
                 PNO $ =
2018-01-18 05:56 METAR KBHB 181056Z AUTO 18003KT 7SM CLR M09/M11 A2993 RMK AO2 SLP138 T10941106
                 FZRANO PNO $ =
2018-01-18 04:56 METAR KBHB 180956Z AUTO 18003KT 9SM CLR M09/M10 A2992 RMK AO2 SLP137 T10891100
                 FZRANO PNO $ =
2018-01-18 03:56 METAR KBHB 180856Z AUTO 35003KT 10SM CLR M08/M09 A2993 RMK AO2 SLP139 6////
                 T10781089 56015 FZRANO PNO $ =
2018-01-18 03:35 METAR KBHB 180835Z AUTO 00000KT 4SM BR CLR M07/M08 A2993 RMK AO2 FZRANO PNO $ =
2018-01-18 03:33 METAR KBHB 180833Z AUTO 00000KT 3/4SM BR CLR M07/M08 A2993 RMK AO2 FZRANO RVRNO
                 PNO $ =
2018-01-18 03:25 METAR KBHB 180825Z AUTO 00000KT 1/4SM FZFG FEW042 M06/M07 A2994 RMK AO2 FZRANO
                 RVRNO PNO $ =
2018-01-18 02:56 METAR KBHB 180756Z AUTO 00000KT 10SM BKN042 M06/M07 A2994 RMK AO2 SNE23 SLP142
                 T10611072 FZRANO PNO $ =
2018-01-18 01:56 METAR KBHB 180656Z AUTO 33004KT 6SM -SN BR OVC050 M04/M04 A2996 RMK AO2 SLP149
                 T10391044 FZRANO PNO $ =
2018-01-18 01:18 METAR KBHB 180618Z AUTO 32003KT 3SM -SN BR FEW019 OVC035 M03/M04 A2997 RMK AO2
                 FZRANO PNO $ =
2018-01-18 01:03 METAR KBHB 180603Z AUTO 33005KT 3SM -SN BR SCT019 BKN024 OVC035 M03/M04 A2997
                 RMK AO2 FZRANO PNO $ =
2018-01-18 00:56 METAR KBHB 180556Z AUTO 33004KT 1 1/2SM -SN BR OVC021 M03/M04 A2997 RMK AO2
                 SLP154 6//// T10331044 11028 21033 56013 FZRANO PNO $ =
2018-01-18 00:32 METAR KBHB 180532Z AUTO 34005KT 1SM -SN BR OVC020 M03/M04 A2998 RMK AO2 FZRANO
                 RVRNO PNO $ =
2018-01-18 00:12 METAR KBHB 180512Z AUTO 32005KT 3/4SM -SN BR OVC018 M03/M04 A2999 RMK AO2 FZRANO
                 RVRNO PNO $ =
2018-01-17 23:56 METAR KBHB 180456Z AUTO 34006KT 1 1/4SM -SN BR OVC018 M03/M04 A2999 RMK AO2
                 SLP158 T10331044 FZRANO PNO $ =
2018-01-17 23:54 METAR KBHB 180454Z AUTO 33005KT 1 1/4SM -SN BR OVC018 M03/M04 A2999 RMK AO2
                 FZRANO PNO $ =
2018-01-17 23:19 METAR KBHB 180419Z AUTO 33004KT 1SM -SN BR FEW010 OVC018 M03/M04 A3000 RMK AO2
                 FZRANO RVRNO PNO $ =
2018-01-17 22:56 METAR KBHB 180356Z AUTO 33003KT 1SM -SN BR OVC010 M03/M04 A3001 RMK AO2 SLP167
                 T10281039 FZRANO RVRNO PNO $ =
2018-01-17 22:32 METAR KBHB 180332Z AUTO 34003KT 1 3/4SM -SN BR OVC010 M03/M04 A3001 RMK AO2
                 FZRANO PNO $ =
2018-01-17 21:56 METAR KBHB 180256Z AUTO 34003KT 4SM -SN BR OVC010 M03/M04 A3002 RMK AO2 SLP168
                 6//// T10281039 56021 FZRANO PNO $ =
2018-01-17 20:56 METAR KBHB 180156Z AUTO 35003KT 6SM -SN BR OVC010 M03/M04 A3003 RMK AO2 SLP172
                 T10281039 FZRANO PNO $ =

Support USWX by starting your Amazon purchase here.